Terminal Aerodrome Forecast
Issued by NWS Dallas/Fort Worth, TX

Home | Current Version | Previous Version | Text Only | Print | Product List | Glossary On
Versions: 1 2 3 4 5 6 7 8 9 10 11 12 13 14 15 16 17 18 19 20 21 22 23 24 25 26 27 28 29 30
242
FTUS44 KFWD 081125
TAFACT
TAF
KACT 081125Z 0812/0912 36015G25KT P6SM -DZ SCT025 BKN080
      TEMPO 0812/0816 BKN025
     FM081600 01015G24KT P6SM BKN060 OVC120
     FM090000 36008KT P6SM BKN090=

USA.gov is the U.S. government's official web portal to all federal, state and local government web resources and services.